Roth, North Dakota
Current Conditions -  °F | °C
As of 8:58 PM on Monday 20 Oct 2014 (Local Time) from KMIB Reporting Station
Clear Clear  
Wind Chill: 50°   Ceiling: Unl
Heat Index: 50°   Visibility: 10mi
Dew Point: 38°   Wind: 10mph
Humidity: 62%   Direction: 150°SSE
Pressure: 29.89"   Gusts: NA
Location:  48.9505°N, 100.734°W
Report Text: KMIB 210158Z AUTO 15009KT 10SM CLR 10/03 A2989 RMK AO2 SLP139 T01000031 $
Loading
Personal Weather Stations






























Interactive Weather Map
Tropical Storm Tracking
New forecast layout! Learn more

10-Day Weather Forecast

Advertisements
Track Severe Weather on mobile